Somerdale, New Jersey
Current Conditions -  °F | °C
As of 7:54 PM on Monday 24 Nov 2014 (Local Time) from KVAY Reporting Station
Clear Clear  
Wind Chill: 65°   Ceiling: Unl
Heat Index: 65°   Visibility: 10mi
Dew Point: 56°   Wind: 10mph
Humidity: 73%   Direction: 190°S
Pressure: 29.72"   Gusts: 16mph
Location:  39.85°N, 75.01°W
Report Text: KVAY 250054Z AUTO 19009G14KT 10SM CLR 18/13 A2972 RMK AO2 SLP062 T01830133
Loading
Personal Weather Stations






























Interactive Weather Map New forecast layout! Learn more

10-Day Weather Forecast

Advertisements
Track Severe Weather on mobile